Tetlin, Alaska
Current Conditions -  °F | °C
As of 1:53 PM on Sunday 21 Dec 2014 (Local Time) from PAOR Reporting Station
Overcast Overcast  
Wind Chill: 10°   Ceiling: 2600
Heat Index: 10°   Visibility: 10mi
Dew Point:   Wind: 3mph
Humidity: 80%   Direction: 150°SSE
Pressure: 29.36"   Gusts: NA
Location:  63.13°N, 142.52°W
Report Text: PAOR 212253Z 15003KT 10SM OVC026 M12/M15 A2936 RMK AO2 SLP996 MTNS OBSC S-W T11221150
Loading
Personal Weather Stations






























Interactive Weather Map New forecast layout! Learn more

10-Day Weather Forecast

Advertisements
Track Severe Weather on mobile